createdAt,value
2023-02-05T00:01:19.015Z,25.10
2023-02-05T00:03:49.121Z,24.97
2023-02-05T00:06:17.879Z,24.93
2023-02-05T00:08:47.918Z,30.60
2023-02-05T00:11:16.550Z,25.30
2023-02-05T00:13:45.930Z,25.50
2023-02-05T00:16:17.118Z,27.33
2023-02-05T00:18:46.391Z,25.17
2023-02-05T00:21:15.692Z,24.40
2023-02-05T00:23:44.212Z,24.97
2023-02-05T00:26:15.113Z,24.40
2023-02-05T00:28:45.144Z,25.33
2023-02-05T00:31:23.490Z,25.77
2023-02-05T00:33:55.338Z,25.50
2023-02-05T00:36:24.415Z,25.20
2023-02-05T00:38:53.221Z,25.37
2023-02-05T00:41:24.526Z,24.70
2023-02-05T00:43:53.296Z,26.27
2023-02-05T00:46:21.781Z,26.23
2023-02-05T00:48:50.990Z,25.30
2023-02-05T00:51:19.631Z,24.40
2023-02-05T00:53:48.224Z,24.70
2023-02-05T00:56:16.987Z,25.37
2023-02-05T00:58:50.169Z,24.33
2023-02-05T01:01:19.402Z,24.70
2023-02-05T01:03:49.878Z,24.87
2023-02-05T01:06:18.684Z,25.10
2023-02-05T01:08:47.775Z,25.60
2023-02-05T01:11:17.083Z,26.00
2023-02-05T01:13:47.433Z,25.40
2023-02-05T01:16:16.639Z,25.27
2023-02-05T01:18:45.209Z,30.63
2023-02-05T01:21:14.039Z,26.37
2023-02-05T01:23:43.072Z,26.20
2023-02-05T01:26:12.199Z,25.00
2023-02-05T01:28:40.778Z,26.50
2023-02-05T01:31:11.573Z,26.10
2023-02-05T01:33:42.925Z,28.00
2023-02-05T01:36:12.149Z,24.60
2023-02-05T01:38:41.171Z,25.03
2023-02-05T01:41:12.383Z,25.47
2023-02-05T01:43:41.177Z,26.47
2023-02-05T01:46:20.026Z,26.10
2023-02-05T01:48:52.983Z,26.83
2023-02-05T01:51:23.481Z,26.40
2023-02-05T01:53:53.640Z,24.80
2023-02-05T01:56:27.124Z,25.50
2023-02-05T01:58:59.282Z,28.27
2023-02-05T02:01:29.855Z,25.30
2023-02-05T02:03:59.549Z,31.53
2023-02-05T02:06:29.113Z,25.60
2023-02-05T02:08:58.106Z,29.23
2023-02-05T02:11:29.472Z,25.47
2023-02-05T02:14:01.459Z,25.60
2023-02-05T02:16:32.609Z,25.87
2023-02-05T02:19:01.739Z,26.00
2023-02-05T02:22:05.978Z,26.50
2023-02-05T02:25:13.269Z,26.33
2023-02-05T02:27:46.193Z,25.50
2023-02-05T02:30:19.351Z,25.73
2023-02-05T02:33:16.458Z,25.37
2023-02-05T02:35:47.060Z,25.03
2023-02-05T02:38:21.705Z,25.40
2023-02-05T02:40:54.274Z,26.33
2023-02-05T02:43:27.086Z,24.80
2023-02-05T02:46:01.234Z,25.87
2023-02-05T02:48:31.097Z,26.97
2023-02-05T02:51:01.548Z,25.93
2023-02-05T02:53:35.443Z,26.87
2023-02-05T02:56:06.916Z,25.50
2023-02-05T02:58:45.000Z,28.00
2023-02-05T03:01:17.213Z,29.90
2023-02-05T03:04:10.530Z,26.10
2023-02-05T03:06:41.174Z,25.70
2023-02-05T03:09:13.832Z,26.00
2023-02-05T03:11:42.547Z,24.90
2023-02-05T03:14:13.879Z,24.10
2023-02-05T03:16:45.697Z,27.10
2023-02-05T03:19:14.637Z,25.20
2023-02-05T03:21:45.744Z,24.50
2023-02-05T03:24:17.134Z,26.10
2023-02-05T03:26:56.463Z,25.10
2023-02-05T03:29:30.437Z,24.80
2023-02-05T03:32:15.137Z,25.40
2023-02-05T03:34:51.716Z,26.40
2023-02-05T03:37:31.425Z,27.87
2023-02-05T03:40:33.322Z,26.07
2023-02-05T03:43:09.888Z,25.97
2023-02-05T03:45:56.200Z,25.17
2023-02-05T03:48:38.093Z,26.43
2023-02-05T03:51:17.916Z,27.30
2023-02-05T03:53:53.762Z,26.10
2023-02-05T03:56:27.292Z,25.80
2023-02-05T03:58:58.540Z,25.43
2023-02-05T04:01:30.376Z,26.77
2023-02-05T04:03:59.390Z,25.93
2023-02-05T04:06:30.016Z,25.97
2023-02-05T04:08:59.423Z,26.73
2023-02-05T04:11:29.217Z,26.03
2023-02-05T04:13:58.522Z,26.53
2023-02-05T04:16:29.714Z,27.90
2023-02-05T04:19:01.156Z,26.00
2023-02-05T04:21:30.376Z,25.73
2023-02-05T04:24:00.560Z,25.03
2023-02-05T04:26:30.126Z,25.53
2023-02-05T04:29:04.177Z,25.47
2023-02-05T04:31:42.934Z,25.80
2023-02-05T04:34:18.862Z,24.93
2023-02-05T04:37:17.106Z,24.83
2023-02-05T04:39:49.520Z,25.37
2023-02-05T04:42:19.032Z,27.30
2023-02-05T04:44:48.116Z,25.47
2023-02-05T04:47:17.380Z,26.00
2023-02-05T04:50:06.456Z,26.10
2023-02-05T04:52:35.553Z,25.20
2023-02-05T04:55:05.688Z,24.80
2023-02-05T04:57:34.646Z,26.07
2023-02-05T05:00:07.509Z,25.20
2023-02-05T05:02:36.819Z,24.77
2023-02-05T05:05:07.956Z,26.33
2023-02-05T05:07:38.662Z,25.70
2023-02-05T05:10:12.787Z,26.43
2023-02-05T05:12:41.597Z,26.53
2023-02-05T05:15:15.576Z,33.60
2023-02-05T05:17:44.708Z,25.30
2023-02-05T05:20:14.923Z,25.47
2023-02-05T05:22:43.981Z,26.20
2023-02-05T05:25:15.729Z,29.33
2023-02-05T05:27:44.900Z,29.60
2023-02-05T05:30:14.863Z,25.83
2023-02-05T05:32:43.825Z,25.70
2023-02-05T05:35:14.390Z,25.20
2023-02-05T05:37:43.231Z,28.90
2023-02-05T05:40:31.590Z,26.00
2023-02-05T05:43:18.135Z,25.40
2023-02-05T05:45:47.041Z,27.40
2023-02-05T05:48:16.224Z,28.53
2023-02-05T05:50:47.165Z,25.30
2023-02-05T05:53:16.467Z,25.00
2023-02-05T05:55:45.253Z,24.83
2023-02-05T05:58:14.962Z,25.03
2023-02-05T06:00:44.641Z,25.83
2023-02-05T06:03:13.769Z,27.90
2023-02-05T06:05:42.744Z,26.10
2023-02-05T06:08:14.279Z,24.60
2023-02-05T06:10:43.617Z,25.43
2023-02-05T06:13:12.722Z,25.83
2023-02-05T06:15:41.645Z,25.27
2023-02-05T06:18:10.945Z,24.33
2023-02-05T06:20:41.548Z,25.73
2023-02-05T06:23:10.443Z,24.50
2023-02-05T06:25:41.165Z,24.30
2023-02-05T06:28:11.635Z,24.40
2023-02-05T06:30:41.130Z,24.93
2023-02-05T06:33:11.693Z,26.40
2023-02-05T06:35:49.828Z,25.80
2023-02-05T06:38:19.228Z,24.13
2023-02-05T06:40:53.439Z,24.97
2023-02-05T06:43:22.662Z,25.30
2023-02-05T06:45:51.911Z,24.90
2023-02-05T06:48:21.043Z,24.40
2023-02-05T06:50:50.041Z,24.73
2023-02-05T06:53:19.038Z,24.80
2023-02-05T06:55:47.940Z,24.77
2023-02-05T06:58:18.778Z,24.53
2023-02-05T07:00:50.024Z,25.07
2023-02-05T07:03:19.222Z,24.40
2023-02-05T07:05:48.600Z,24.47
2023-02-05T07:08:18.136Z,24.90
2023-02-05T07:10:47.024Z,25.40
2023-02-05T07:13:17.949Z,25.20
2023-02-05T07:15:47.606Z,25.20
2023-02-05T07:18:16.874Z,25.07
2023-02-05T07:20:46.077Z,25.03
2023-02-05T07:23:15.451Z,25.10
2023-02-05T07:25:46.728Z,24.43
2023-02-05T07:28:38.061Z,25.43
2023-02-05T07:31:08.184Z,25.23
2023-02-05T07:33:38.080Z,25.23
2023-02-05T07:36:09.134Z,26.27
2023-02-05T07:38:58.388Z,26.13
2023-02-05T07:41:29.737Z,26.20
2023-02-05T07:44:00.194Z,25.10
2023-02-05T07:46:29.864Z,25.00
2023-02-05T07:48:58.594Z,25.40
2023-02-05T07:51:28.380Z,26.30
2023-02-05T07:53:57.572Z,24.70
2023-02-05T07:56:26.979Z,25.50
2023-02-05T07:58:56.179Z,26.03
2023-02-05T08:01:26.606Z,30.43
2023-02-05T08:03:55.832Z,25.87
2023-02-05T08:06:25.308Z,27.27
2023-02-05T08:08:56.250Z,25.63
2023-02-05T08:11:28.112Z,26.90
2023-02-05T08:13:56.888Z,26.57
2023-02-05T08:16:27.795Z,26.50
2023-02-05T08:18:56.935Z,25.40
2023-02-05T08:21:26.132Z,26.37
2023-02-05T08:23:57.362Z,30.40
2023-02-05T08:26:26.376Z,26.57
2023-02-05T08:28:56.592Z,26.50
2023-02-05T08:31:27.154Z,28.83
2023-02-05T08:33:58.168Z,27.73
2023-02-05T08:36:27.472Z,25.50
2023-02-05T08:38:56.355Z,26.40
2023-02-05T08:41:25.971Z,25.57
2023-02-05T08:43:58.243Z,25.67
2023-02-05T08:46:49.671Z,26.33
2023-02-05T08:49:18.780Z,25.40
2023-02-05T08:51:48.413Z,25.10
2023-02-05T08:54:17.865Z,27.20
2023-02-05T08:57:01.517Z,27.13
2023-02-05T08:59:34.162Z,27.60
2023-02-05T09:02:06.158Z,25.93
2023-02-05T09:04:35.382Z,26.10
2023-02-05T09:07:03.996Z,25.53
2023-02-05T09:09:35.056Z,25.07
2023-02-05T09:12:04.795Z,28.40
2023-02-05T09:14:36.510Z,30.17
2023-02-05T09:17:07.480Z,25.87
2023-02-05T09:19:36.386Z,26.17
2023-02-05T09:22:05.898Z,25.67
2023-02-05T09:24:34.723Z,28.30
2023-02-05T09:27:06.362Z,23.93
2023-02-05T09:29:35.848Z,24.73
2023-02-05T09:32:06.416Z,24.63
2023-02-05T09:34:36.044Z,24.30
2023-02-05T09:37:04.540Z,23.57
2023-02-05T09:42:29.903Z,24.17
2023-02-05T09:45:07.981Z,24.47
2023-02-05T09:47:43.150Z,23.20
2023-02-05T09:50:16.260Z,25.57
2023-02-05T09:52:49.766Z,23.77
2023-02-05T09:55:22.561Z,23.10
2023-02-05T09:57:53.443Z,23.30
2023-02-05T10:00:27.738Z,22.83
2023-02-05T10:03:04.408Z,22.57
2023-02-05T10:05:40.554Z,24.07
2023-02-05T10:08:15.249Z,22.93
2023-02-05T10:10:46.623Z,28.40
2023-02-05T10:13:29.271Z,22.70
2023-02-05T10:16:10.104Z,22.63
2023-02-05T10:18:53.214Z,23.70
2023-02-05T10:21:37.647Z,23.10
2023-02-05T10:24:21.804Z,21.60
2023-02-05T10:26:54.381Z,21.40
2023-02-05T10:29:29.894Z,23.40
2023-02-05T10:32:11.419Z,20.83
2023-02-05T10:34:50.556Z,21.00
2023-02-05T10:37:21.148Z,22.13
2023-02-05T10:39:50.758Z,20.60
2023-02-05T10:42:27.702Z,18.23
2023-02-05T10:45:02.702Z,18.80
2023-02-05T10:47:42.349Z,22.93
2023-02-05T10:50:19.962Z,19.33
2023-02-05T10:52:48.867Z,20.27
2023-02-05T10:55:17.700Z,18.23
2023-02-05T10:57:46.345Z,18.27
2023-02-05T11:00:17.768Z,17.53
2023-02-05T11:02:50.032Z,17.93
2023-02-05T11:05:25.078Z,17.80
2023-02-05T11:07:55.019Z,17.17
2023-02-05T11:10:24.997Z,16.27
2023-02-05T11:12:55.157Z,16.10
2023-02-05T11:15:26.788Z,16.30
2023-02-05T11:18:00.748Z,16.50
2023-02-05T11:20:32.731Z,16.50
2023-02-05T11:23:10.378Z,16.50
2023-02-05T11:25:50.564Z,16.87
2023-02-05T11:28:28.577Z,16.73
2023-02-05T11:30:57.483Z,16.73
2023-02-05T11:33:28.618Z,15.80
2023-02-05T11:36:00.968Z,15.33
2023-02-05T11:38:35.403Z,15.30
2023-02-05T11:41:06.028Z,16.20
2023-02-05T11:43:36.253Z,15.83
2023-02-05T11:46:07.679Z,15.60
2023-02-05T11:48:41.433Z,15.10
2023-02-05T11:51:13.163Z,15.17
2023-02-05T11:53:50.009Z,13.90
2023-02-05T11:56:24.353Z,14.80
2023-02-05T11:59:00.930Z,15.43
2023-02-05T12:01:33.805Z,15.80
2023-02-05T12:04:04.187Z,15.03
2023-02-05T12:06:39.032Z,16.60
2023-02-05T12:09:07.751Z,14.03
2023-02-05T12:12:04.194Z,13.50
2023-02-05T12:14:39.870Z,15.70
2023-02-05T12:17:21.538Z,15.17
2023-02-05T12:19:54.571Z,13.37
2023-02-05T12:22:32.340Z,13.33
2023-02-05T12:25:10.565Z,16.00
2023-02-05T12:27:53.115Z,15.40
2023-02-05T12:30:33.516Z,15.13
2023-02-05T12:33:18.790Z,15.07
2023-02-05T12:35:56.478Z,14.30
2023-02-05T12:38:34.906Z,13.97
2023-02-05T12:41:13.401Z,13.93
2023-02-05T12:43:43.304Z,13.60
2023-02-05T12:46:28.828Z,18.07
2023-02-05T12:49:10.588Z,13.80
2023-02-05T12:51:57.010Z,15.80
2023-02-05T12:54:50.043Z,13.83
2023-02-05T12:57:21.040Z,15.93
2023-02-05T12:59:52.299Z,14.00
2023-02-05T13:02:28.729Z,16.40
2023-02-05T13:05:14.622Z,14.60
2023-02-05T13:07:45.372Z,13.10
2023-02-05T13:10:19.774Z,13.63
2023-02-05T13:12:50.810Z,14.10
2023-02-05T13:15:22.123Z,13.77
2023-02-05T13:18:02.205Z,12.90
2023-02-05T13:20:52.465Z,15.40
2023-02-05T13:23:38.160Z,13.77
2023-02-05T13:26:26.198Z,14.00
2023-02-05T13:28:58.944Z,14.10
2023-02-05T13:31:29.703Z,14.10
2023-02-05T13:34:03.793Z,14.20
2023-02-05T13:36:55.617Z,13.87
2023-02-05T13:39:43.101Z,14.40
2023-02-05T13:42:42.208Z,15.13
2023-02-05T13:45:46.021Z,15.07
2023-02-05T13:48:28.445Z,15.00
2023-02-05T13:51:18.147Z,15.20
2023-02-05T13:53:54.666Z,14.10
2023-02-05T13:56:48.968Z,13.93
2023-02-05T13:59:23.688Z,15.30
2023-02-05T14:01:54.193Z,13.20
2023-02-05T14:04:26.197Z,13.40
2023-02-05T14:07:00.541Z,12.93
2023-02-05T14:09:35.192Z,13.10
2023-02-05T14:12:05.959Z,16.70
2023-02-05T14:14:36.402Z,16.03
2023-02-05T14:17:43.230Z,15.13
2023-02-05T14:20:40.186Z,14.33
2023-02-05T14:23:16.842Z,15.90
2023-02-05T14:26:11.418Z,13.70
2023-02-05T14:28:53.198Z,15.27
2023-02-05T14:31:47.429Z,14.87
2023-02-05T14:34:49.016Z,15.33
2023-02-05T14:37:40.599Z,15.53
2023-02-05T14:40:27.845Z,14.40
2023-02-05T14:43:09.590Z,14.30
2023-02-05T14:45:44.239Z,13.50
2023-02-05T14:48:20.485Z,13.90
2023-02-05T14:50:48.760Z,14.40
2023-02-05T14:53:26.682Z,14.40
2023-02-05T14:55:56.747Z,17.57
2023-02-05T14:58:27.400Z,12.73
2023-02-05T15:01:29.096Z,13.50
2023-02-05T15:03:59.262Z,14.00
2023-02-05T15:06:30.484Z,14.63
2023-02-05T15:09:04.432Z,15.27
2023-02-05T15:11:46.779Z,13.97
2023-02-05T15:14:41.751Z,13.83
2023-02-05T15:17:40.475Z,15.50
2023-02-05T15:20:20.316Z,15.90
2023-02-05T15:22:53.546Z,14.87
2023-02-05T15:25:33.856Z,15.03
2023-02-05T15:28:06.300Z,14.17
2023-02-05T15:30:45.046Z,15.23
2023-02-05T15:33:17.909Z,14.37
2023-02-05T15:35:47.668Z,13.97
2023-02-05T15:38:26.241Z,13.73
2023-02-05T15:40:56.594Z,15.03
2023-02-05T15:43:26.162Z,13.70
2023-02-05T15:46:00.905Z,14.70
2023-02-05T15:48:39.154Z,13.73
2023-02-05T15:51:14.981Z,14.60
2023-02-05T15:53:46.005Z,16.23
2023-02-05T15:56:22.821Z,15.00
2023-02-05T15:58:53.565Z,15.93
2023-02-05T16:01:26.303Z,15.20
2023-02-05T16:03:54.605Z,14.23
2023-02-05T16:06:25.198Z,14.30
2023-02-05T16:08:54.280Z,13.60
2023-02-05T16:11:31.961Z,13.53
2023-02-05T16:14:04.840Z,16.10
2023-02-05T16:16:33.913Z,15.67
2023-02-05T16:19:04.786Z,15.60
2023-02-05T16:21:34.441Z,14.83
2023-02-05T16:24:04.689Z,13.80
2023-02-05T16:26:39.818Z,15.43
2023-02-05T16:29:20.174Z,14.40
2023-02-05T16:31:59.019Z,15.90
2023-02-05T16:34:27.522Z,15.03
2023-02-05T16:36:58.784Z,16.30
2023-02-05T16:39:28.927Z,16.53
2023-02-05T16:42:07.087Z,15.27
2023-02-05T16:44:37.451Z,15.30
2023-02-05T16:47:12.594Z,14.47
2023-02-05T16:49:41.604Z,16.17
2023-02-05T16:52:28.907Z,15.13
2023-02-05T16:54:57.393Z,16.27
2023-02-05T16:57:31.401Z,17.00
2023-02-05T17:00:01.151Z,15.80
2023-02-05T17:02:35.683Z,14.70
2023-02-05T17:05:05.966Z,14.87
2023-02-05T17:07:34.933Z,17.90
2023-02-05T17:10:15.007Z,15.87
2023-02-05T17:12:54.389Z,15.70
2023-02-05T17:15:34.263Z,21.80
2023-02-05T17:18:11.198Z,17.03
2023-02-05T17:20:39.481Z,20.63
2023-02-05T17:23:09.942Z,17.03
2023-02-05T17:25:41.338Z,18.13
2023-02-05T17:28:16.537Z,17.40
2023-02-05T17:30:45.892Z,17.00
2023-02-05T17:33:18.297Z,16.13
2023-02-05T17:35:46.549Z,19.00
2023-02-05T17:38:14.969Z,19.13
2023-02-05T17:40:43.659Z,17.90
2023-02-05T17:43:13.801Z,20.20
2023-02-05T17:45:44.311Z,18.23
2023-02-05T17:48:13.114Z,16.20
2023-02-05T17:50:41.452Z,20.23
2023-02-05T17:53:14.133Z,16.37
2023-02-05T17:55:43.002Z,22.10
2023-02-05T17:58:11.439Z,17.60
2023-02-05T18:00:41.303Z,27.50
2023-02-05T18:03:10.197Z,18.20
2023-02-05T18:05:39.456Z,19.13
2023-02-05T18:08:07.853Z,17.40
2023-02-05T18:10:37.071Z,18.40
2023-02-05T18:13:05.629Z,17.93
2023-02-05T18:15:34.275Z,18.03
2023-02-05T18:18:04.226Z,21.80
2023-02-05T18:20:32.598Z,18.90
2023-02-05T18:23:03.251Z,18.73
2023-02-05T18:25:32.141Z,16.97
2023-02-05T18:28:00.396Z,18.80
2023-02-05T18:30:29.915Z,17.17
2023-02-05T18:32:58.665Z,18.37
2023-02-05T18:35:28.479Z,18.80
2023-02-05T18:37:56.896Z,17.90
2023-02-05T18:40:26.678Z,20.70
2023-02-05T18:42:56.382Z,19.13
2023-02-05T18:45:24.646Z,19.80
2023-02-05T18:47:52.945Z,18.43
2023-02-05T18:50:22.005Z,18.80
2023-02-05T18:52:51.730Z,17.70
2023-02-05T18:55:19.917Z,20.10
2023-02-05T18:57:48.211Z,17.63
2023-02-05T19:00:17.315Z,18.43
2023-02-05T19:02:46.265Z,19.43
2023-02-05T19:05:14.988Z,21.50
2023-02-05T19:07:45.002Z,19.40
2023-02-05T19:10:15.062Z,19.60
2023-02-05T19:12:43.871Z,19.07
2023-02-05T19:15:12.848Z,21.50
2023-02-05T19:17:41.453Z,20.63
2023-02-05T19:20:10.512Z,20.70
2023-02-05T19:22:38.824Z,18.80
2023-02-05T19:25:08.511Z,33.23
2023-02-05T19:27:38.321Z,19.83
2023-02-05T19:30:08.808Z,21.40
2023-02-05T19:32:37.718Z,22.03
2023-02-05T19:35:06.529Z,19.33
2023-02-05T19:37:35.085Z,21.70
2023-02-05T19:40:03.879Z,19.13
2023-02-05T19:42:32.748Z,20.53
2023-02-05T19:45:02.974Z,20.13
2023-02-05T19:47:32.207Z,22.43
2023-02-05T19:50:01.314Z,20.70
2023-02-05T19:52:30.398Z,20.50
2023-02-05T19:54:59.294Z,21.50
2023-02-05T19:57:28.988Z,22.10
2023-02-05T19:59:57.836Z,21.13
2023-02-05T20:02:28.292Z,20.47
2023-02-05T20:04:57.289Z,20.40
2023-02-05T20:07:26.376Z,21.20
2023-02-05T20:09:55.040Z,20.20
2023-02-05T20:12:23.443Z,23.50
2023-02-05T20:14:51.825Z,21.73
2023-02-05T20:17:20.333Z,22.70
2023-02-05T20:19:52.156Z,22.13
2023-02-05T20:22:24.435Z,21.53
2023-02-05T20:24:53.518Z,22.43
2023-02-05T20:27:23.321Z,22.20
2023-02-05T20:30:09.483Z,21.70
2023-02-05T20:32:38.084Z,23.00
2023-02-05T20:35:09.456Z,22.60
2023-02-05T20:37:38.403Z,23.17
2023-02-05T20:40:10.204Z,22.50
2023-02-05T20:42:39.271Z,21.80
2023-02-05T20:45:09.296Z,20.47
2023-02-05T20:47:38.213Z,22.60
2023-02-05T20:50:09.444Z,21.83
2023-02-05T20:52:38.353Z,22.13
2023-02-05T20:55:08.969Z,24.33
2023-02-05T20:57:38.084Z,22.23
2023-02-05T21:00:08.409Z,22.33
2023-02-05T21:02:37.442Z,21.70
2023-02-05T21:05:07.009Z,24.70
2023-02-05T21:07:37.469Z,22.23
2023-02-05T21:10:07.030Z,23.43
2023-02-05T21:12:35.950Z,21.53
2023-02-05T21:15:05.274Z,23.63
2023-02-05T21:17:34.645Z,22.93
2023-02-05T21:20:04.804Z,26.00
2023-02-05T21:22:33.841Z,23.53
2023-02-05T21:25:04.200Z,25.13
2023-02-05T21:27:33.002Z,22.97
2023-02-05T21:30:01.539Z,22.30
2023-02-05T21:32:30.677Z,23.17
2023-02-05T21:34:59.400Z,24.00
2023-02-05T21:37:27.899Z,25.10
2023-02-05T21:40:08.471Z,23.73
2023-02-05T21:42:42.378Z,23.90
2023-02-05T21:45:11.501Z,22.80
2023-02-05T21:47:40.591Z,22.53
2023-02-05T21:50:10.452Z,22.63
2023-02-05T21:52:39.708Z,23.37
2023-02-05T21:55:09.407Z,23.80
2023-02-05T21:57:38.323Z,22.93
2023-02-05T22:00:09.758Z,23.53
2023-02-05T22:02:41.688Z,23.90
2023-02-05T22:08:04.356Z,25.30
2023-02-05T22:10:33.844Z,24.27
2023-02-05T22:13:02.977Z,24.73
2023-02-05T22:15:33.108Z,25.23
2023-02-05T22:18:01.882Z,28.70
2023-02-05T22:20:30.655Z,26.53
2023-02-05T22:22:59.502Z,22.73
2023-02-05T22:25:28.485Z,23.73
2023-02-05T22:27:57.194Z,24.60
2023-02-05T22:30:26.260Z,23.10
2023-02-05T22:32:56.654Z,25.70
2023-02-05T22:35:25.790Z,25.10
2023-02-05T22:37:55.101Z,23.80
2023-02-05T22:40:24.294Z,27.60
2023-02-05T22:43:14.072Z,25.33
2023-02-05T22:45:45.439Z,23.73
2023-02-05T22:48:16.160Z,23.70
2023-02-05T22:50:46.910Z,25.13
2023-02-05T22:53:15.905Z,26.20
2023-02-05T22:55:45.189Z,31.53
2023-02-05T22:58:14.341Z,23.57
2023-02-05T23:00:43.380Z,23.90
2023-02-05T23:03:12.288Z,23.80
2023-02-05T23:05:42.700Z,25.53
2023-02-05T23:08:11.980Z,23.30
2023-02-05T23:10:41.261Z,25.63
2023-02-05T23:13:10.247Z,23.93
2023-02-05T23:15:39.264Z,25.97
2023-02-05T23:18:07.997Z,23.83
2023-02-05T23:20:37.039Z,25.57
2023-02-05T23:23:07.394Z,24.40
2023-02-05T23:25:37.870Z,25.80
2023-02-05T23:28:07.079Z,23.80
2023-02-05T23:30:36.268Z,24.70
2023-02-05T23:33:05.315Z,24.17
2023-02-05T23:35:59.691Z,24.90
2023-02-05T23:38:32.338Z,25.30
2023-02-05T23:41:01.306Z,25.93
2023-02-05T23:43:30.384Z,27.03
2023-02-05T23:46:02.983Z,24.30
2023-02-05T23:48:31.845Z,27.20
2023-02-05T23:51:01.152Z,27.70
2023-02-05T23:53:34.754Z,24.03
2023-02-05T23:56:24.008Z,24.50
2023-02-05T23:58:53.507Z,25.93
